sensor_id;sensor_type;location;lat;lon;timestamp;temperature;humidity
12634;DHT22;6382;48.614;8.880;2023-02-18T00:01:57;10.80;99.90
12634;DHT22;6382;48.614;8.880;2023-02-18T00:04:24;9.80;99.90
12634;DHT22;6382;48.614;8.880;2023-02-18T00:06:51;9.70;99.90
12634;DHT22;6382;48.614;8.880;2023-02-18T00:09:17;9.70;99.90
12634;DHT22;6382;48.614;8.880;2023-02-18T00:11:44;9.70;99.90
12634;DHT22;6382;48.614;8.880;2023-02-18T00:14:11;9.80;99.90
12634;DHT22;6382;48.614;8.880;2023-02-18T00:16:39;9.70;99.90
12634;DHT22;6382;48.614;8.880;2023-02-18T00:19:06;9.70;99.90
12634;DHT22;6382;48.614;8.880;2023-02-18T00:21:34;11.40;99.90
12634;DHT22;6382;48.614;8.880;2023-02-18T00:24:01;9.70;99.90
12634;DHT22;6382;48.614;8.880;2023-02-18T00:26:28;9.70;99.90
12634;DHT22;6382;48.614;8.880;2023-02-18T00:28:54;9.70;99.90
12634;DHT22;6382;48.614;8.880;2023-02-18T00:31:25;9.70;99.90
12634;DHT22;6382;48.614;8.880;2023-02-18T00:33:52;9.70;99.90
12634;DHT22;6382;48.614;8.880;2023-02-18T00:36:20;9.70;99.90
12634;DHT22;6382;48.614;8.880;2023-02-18T00:38:48;11.20;99.90
12634;DHT22;6382;48.614;8.880;2023-02-18T00:41:15;9.70;99.90
12634;DHT22;6382;48.614;8.880;2023-02-18T00:43:42;9.70;99.90
12634;DHT22;6382;48.614;8.880;2023-02-18T00:46:09;9.70;99.90
12634;DHT22;6382;48.614;8.880;2023-02-18T00:48:37;9.70;99.90
12634;DHT22;6382;48.614;8.880;2023-02-18T00:51:04;9.70;99.90
12634;DHT22;6382;48.614;8.880;2023-02-18T00:53:31;9.70;99.90
12634;DHT22;6382;48.614;8.880;2023-02-18T00:55:58;9.70;99.90
12634;DHT22;6382;48.614;8.880;2023-02-18T00:58:25;9.70;99.90
12634;DHT22;6382;48.614;8.880;2023-02-18T01:00:52;9.70;99.90
12634;DHT22;6382;48.614;8.880;2023-02-18T01:03:19;9.70;99.90
12634;DHT22;6382;48.614;8.880;2023-02-18T01:05:48;9.70;99.90
12634;DHT22;6382;48.614;8.880;2023-02-18T01:08:16;9.70;99.90
12634;DHT22;6382;48.614;8.880;2023-02-18T01:10:43;9.60;99.90
12634;DHT22;6382;48.614;8.880;2023-02-18T01:13:11;9.60;99.90
12634;DHT22;6382;48.614;8.880;2023-02-18T01:15:39;11.20;99.90
12634;DHT22;6382;48.614;8.880;2023-02-18T01:18:06;9.50;99.90
12634;DHT22;6382;48.614;8.880;2023-02-18T01:20:34;9.60;99.90
12634;DHT22;6382;48.614;8.880;2023-02-18T01:23:00;9.50;99.90
12634;DHT22;6382;48.614;8.880;2023-02-18T01:25:27;9.50;99.90
12634;DHT22;6382;48.614;8.880;2023-02-18T01:27:54;9.50;99.90
12634;DHT22;6382;48.614;8.880;2023-02-18T01:30:21;9.50;99.90
12634;DHT22;6382;48.614;8.880;2023-02-18T01:32:48;9.40;99.90
12634;DHT22;6382;48.614;8.880;2023-02-18T01:35:16;9.50;99.90
12634;DHT22;6382;48.614;8.880;2023-02-18T01:37:44;9.40;99.90
12634;DHT22;6382;48.614;8.880;2023-02-18T01:40:11;9.40;99.90
12634;DHT22;6382;48.614;8.880;2023-02-18T01:42:38;9.40;99.90
12634;DHT22;6382;48.614;8.880;2023-02-18T01:50:44;9.30;99.90
12634;DHT22;6382;48.614;8.880;2023-02-18T01:53:13;9.40;99.90
12634;DHT22;6382;48.614;8.880;2023-02-18T01:55:42;9.40;99.90
12634;DHT22;6382;48.614;8.880;2023-02-18T01:58:10;9.30;99.90
12634;DHT22;6382;48.614;8.880;2023-02-18T02:00:37;9.30;99.90
12634;DHT22;6382;48.614;8.880;2023-02-18T02:03:04;9.30;99.90
12634;DHT22;6382;48.614;8.880;2023-02-18T02:05:32;9.30;99.90
12634;DHT22;6382;48.614;8.880;2023-02-18T02:07:59;9.40;99.90
12634;DHT22;6382;48.614;8.880;2023-02-18T02:10:28;9.30;99.90
12634;DHT22;6382;48.614;8.880;2023-02-18T02:34:19;9.40;99.90
12634;DHT22;6382;48.614;8.880;2023-02-18T02:36:48;9.40;99.90
12634;DHT22;6382;48.614;8.880;2023-02-18T02:44:25;9.50;99.90
12634;DHT22;6382;48.614;8.880;2023-02-18T02:46:55;9.50;99.90
12634;DHT22;6382;48.614;8.880;2023-02-18T02:54:24;9.40;99.90
12634;DHT22;6382;48.614;8.880;2023-02-18T02:57:36;9.40;99.90
12634;DHT22;6382;48.614;8.880;2023-02-18T02:59:55;9.40;99.90
12634;DHT22;6382;48.614;8.880;2023-02-18T03:04:57;9.40;99.90
12634;DHT22;6382;48.614;8.880;2023-02-18T03:10:11;9.40;99.90
12634;DHT22;6382;48.614;8.880;2023-02-18T03:12:53;9.40;99.90
12634;DHT22;6382;48.614;8.880;2023-02-18T03:15:27;9.40;99.90
12634;DHT22;6382;48.614;8.880;2023-02-18T03:18:00;9.40;99.90
12634;DHT22;6382;48.614;8.880;2023-02-18T03:20:33;9.40;99.90
12634;DHT22;6382;48.614;8.880;2023-02-18T03:23:02;9.40;99.90
12634;DHT22;6382;48.614;8.880;2023-02-18T03:25:30;9.50;99.90
12634;DHT22;6382;48.614;8.880;2023-02-18T03:28:01;9.40;99.90
12634;DHT22;6382;48.614;8.880;2023-02-18T03:30:47;9.50;99.90
12634;DHT22;6382;48.614;8.880;2023-02-18T03:33:16;9.40;99.90
12634;DHT22;6382;48.614;8.880;2023-02-18T03:35:43;9.40;99.90
12634;DHT22;6382;48.614;8.880;2023-02-18T03:40:37;9.30;99.90
12634;DHT22;6382;48.614;8.880;2023-02-18T03:43:03;9.20;99.90
12634;DHT22;6382;48.614;8.880;2023-02-18T03:45:30;9.10;99.90
12634;DHT22;6382;48.614;8.880;2023-02-18T03:47:57;9.10;99.90
12634;DHT22;6382;48.614;8.880;2023-02-18T03:50:23;9.00;99.90
12634;DHT22;6382;48.614;8.880;2023-02-18T03:52:50;9.00;99.90
12634;DHT22;6382;48.614;8.880;2023-02-18T03:55:17;8.90;99.90
12634;DHT22;6382;48.614;8.880;2023-02-18T03:57:44;8.80;99.90
12634;DHT22;6382;48.614;8.880;2023-02-18T04:00:11;8.80;99.90
12634;DHT22;6382;48.614;8.880;2023-02-18T04:02:38;8.70;99.90
12634;DHT22;6382;48.614;8.880;2023-02-18T04:05:04;8.70;99.90
12634;DHT22;6382;48.614;8.880;2023-02-18T04:07:32;8.60;99.90
12634;DHT22;6382;48.614;8.880;2023-02-18T04:09:59;8.60;99.90
12634;DHT22;6382;48.614;8.880;2023-02-18T04:12:26;9.60;99.90
12634;DHT22;6382;48.614;8.880;2023-02-18T04:14:52;11.40;99.90
12634;DHT22;6382;48.614;8.880;2023-02-18T04:17:19;8.50;99.90
12634;DHT22;6382;48.614;8.880;2023-02-18T04:19:46;8.50;99.90
12634;DHT22;6382;48.614;8.880;2023-02-18T04:22:12;8.50;99.90
12634;DHT22;6382;48.614;8.880;2023-02-18T04:24:39;8.50;99.90
12634;DHT22;6382;48.614;8.880;2023-02-18T04:27:06;8.40;99.90
12634;DHT22;6382;48.614;8.880;2023-02-18T04:29:33;8.40;99.90
12634;DHT22;6382;48.614;8.880;2023-02-18T04:32:00;10.00;99.90
12634;DHT22;6382;48.614;8.880;2023-02-18T04:34:26;8.30;99.90
12634;DHT22;6382;48.614;8.880;2023-02-18T04:36:53;8.30;99.90
12634;DHT22;6382;48.614;8.880;2023-02-18T04:39:20;8.40;99.90
12634;DHT22;6382;48.614;8.880;2023-02-18T04:41:46;8.30;99.90
12634;DHT22;6382;48.614;8.880;2023-02-18T04:44:13;8.40;99.90
12634;DHT22;6382;48.614;8.880;2023-02-18T04:46:39;8.40;99.90
12634;DHT22;6382;48.614;8.880;2023-02-18T04:49:06;8.50;99.90
12634;DHT22;6382;48.614;8.880;2023-02-18T04:51:33;9.50;99.90
12634;DHT22;6382;48.614;8.880;2023-02-18T04:53:59;8.50;99.90
12634;DHT22;6382;48.614;8.880;2023-02-18T04:56:26;8.50;99.90
12634;DHT22;6382;48.614;8.880;2023-02-18T04:58:53;8.50;99.90
12634;DHT22;6382;48.614;8.880;2023-02-18T05:01:19;8.50;99.90
12634;DHT22;6382;48.614;8.880;2023-02-18T05:03:46;8.50;99.90
12634;DHT22;6382;48.614;8.880;2023-02-18T05:06:13;8.50;99.90
12634;DHT22;6382;48.614;8.880;2023-02-18T05:08:40;8.50;99.90
12634;DHT22;6382;48.614;8.880;2023-02-18T05:11:07;8.50;99.90
12634;DHT22;6382;48.614;8.880;2023-02-18T05:13:34;8.60;99.90
12634;DHT22;6382;48.614;8.880;2023-02-18T05:16:00;8.60;99.90
12634;DHT22;6382;48.614;8.880;2023-02-18T05:18:27;8.50;99.90
12634;DHT22;6382;48.614;8.880;2023-02-18T05:20:54;8.50;99.90
12634;DHT22;6382;48.614;8.880;2023-02-18T05:23:21;8.50;99.90
12634;DHT22;6382;48.614;8.880;2023-02-18T05:25:47;8.50;99.90
12634;DHT22;6382;48.614;8.880;2023-02-18T05:28:14;8.40;99.90
12634;DHT22;6382;48.614;8.880;2023-02-18T05:30:41;8.50;99.90
12634;DHT22;6382;48.614;8.880;2023-02-18T05:33:07;8.40;99.90
12634;DHT22;6382;48.614;8.880;2023-02-18T05:35:34;8.20;99.90
12634;DHT22;6382;48.614;8.880;2023-02-18T05:38:01;8.40;99.90
12634;DHT22;6382;48.614;8.880;2023-02-18T05:40:27;8.40;99.90
12634;DHT22;6382;48.614;8.880;2023-02-18T05:42:54;8.40;99.90
12634;DHT22;6382;48.614;8.880;2023-02-18T05:45:21;8.40;99.90
12634;DHT22;6382;48.614;8.880;2023-02-18T05:47:48;8.30;99.90
12634;DHT22;6382;48.614;8.880;2023-02-18T05:50:14;8.40;99.90
12634;DHT22;6382;48.614;8.880;2023-02-18T05:52:41;9.30;99.90
12634;DHT22;6382;48.614;8.880;2023-02-18T05:55:08;8.40;99.90
12634;DHT22;6382;48.614;8.880;2023-02-18T05:57:34;10.00;99.90
12634;DHT22;6382;48.614;8.880;2023-02-18T06:00:01;8.40;99.90
12634;DHT22;6382;48.614;8.880;2023-02-18T06:02:28;8.40;99.90
12634;DHT22;6382;48.614;8.880;2023-02-18T06:04:54;8.40;99.90
12634;DHT22;6382;48.614;8.880;2023-02-18T06:07:21;8.50;99.90
12634;DHT22;6382;48.614;8.880;2023-02-18T06:09:48;10.20;99.90
12634;DHT22;6382;48.614;8.880;2023-02-18T06:12:14;9.00;99.90
12634;DHT22;6382;48.614;8.880;2023-02-18T06:14:41;8.50;99.90
12634;DHT22;6382;48.614;8.880;2023-02-18T06:17:08;8.50;99.90
12634;DHT22;6382;48.614;8.880;2023-02-18T06:19:35;10.70;99.90
12634;DHT22;6382;48.614;8.880;2023-02-18T06:22:02;8.60;99.90
12634;DHT22;6382;48.614;8.880;2023-02-18T06:24:29;8.70;99.90
12634;DHT22;6382;48.614;8.880;2023-02-18T06:26:56;8.70;99.90
12634;DHT22;6382;48.614;8.880;2023-02-18T06:29:22;8.70;99.90
12634;DHT22;6382;48.614;8.880;2023-02-18T06:31:49;8.80;99.90
12634;DHT22;6382;48.614;8.880;2023-02-18T06:34:16;8.80;99.90
12634;DHT22;6382;48.614;8.880;2023-02-18T06:36:42;8.80;99.90
12634;DHT22;6382;48.614;8.880;2023-02-18T06:39:09;9.00;99.90
12634;DHT22;6382;48.614;8.880;2023-02-18T06:41:36;8.90;99.90
12634;DHT22;6382;48.614;8.880;2023-02-18T06:44:02;9.00;99.90
12634;DHT22;6382;48.614;8.880;2023-02-18T06:46:29;9.00;99.90
12634;DHT22;6382;48.614;8.880;2023-02-18T06:48:56;9.10;99.90
12634;DHT22;6382;48.614;8.880;2023-02-18T06:51:22;10.20;99.90
12634;DHT22;6382;48.614;8.880;2023-02-18T06:53:49;9.20;99.90
12634;DHT22;6382;48.614;8.880;2023-02-18T06:56:16;9.10;99.90
12634;DHT22;6382;48.614;8.880;2023-02-18T06:58:43;9.20;99.90
12634;DHT22;6382;48.614;8.880;2023-02-18T07:01:10;9.30;99.90
12634;DHT22;6382;48.614;8.880;2023-02-18T07:03:36;9.30;99.90
12634;DHT22;6382;48.614;8.880;2023-02-18T07:06:03;9.30;99.90
12634;DHT22;6382;48.614;8.880;2023-02-18T07:08:30;9.30;99.90
12634;DHT22;6382;48.614;8.880;2023-02-18T07:10:58;9.40;99.90
12634;DHT22;6382;48.614;8.880;2023-02-18T07:13:25;9.50;99.90
12634;DHT22;6382;48.614;8.880;2023-02-18T07:15:51;9.50;99.90
12634;DHT22;6382;48.614;8.880;2023-02-18T07:18:18;9.60;99.90
12634;DHT22;6382;48.614;8.880;2023-02-18T07:20:45;12.40;99.90
12634;DHT22;6382;48.614;8.880;2023-02-18T07:23:11;9.60;99.90
12634;DHT22;6382;48.614;8.880;2023-02-18T07:25:38;9.70;99.90
12634;DHT22;6382;48.614;8.880;2023-02-18T07:28:05;9.70;99.90
12634;DHT22;6382;48.614;8.880;2023-02-18T07:30:31;9.80;99.90
12634;DHT22;6382;48.614;8.880;2023-02-18T07:32:58;9.70;99.90
12634;DHT22;6382;48.614;8.880;2023-02-18T07:35:25;9.70;99.90
12634;DHT22;6382;48.614;8.880;2023-02-18T07:37:51;9.70;99.90
12634;DHT22;6382;48.614;8.880;2023-02-18T07:40:20;9.80;99.90
12634;DHT22;6382;48.614;8.880;2023-02-18T07:42:47;9.80;99.90
12634;DHT22;6382;48.614;8.880;2023-02-18T07:45:14;9.80;99.90
12634;DHT22;6382;48.614;8.880;2023-02-18T07:47:41;9.80;99.90
12634;DHT22;6382;48.614;8.880;2023-02-18T07:50:08;9.90;99.90
12634;DHT22;6382;48.614;8.880;2023-02-18T07:52:35;9.90;99.90
12634;DHT22;6382;48.614;8.880;2023-02-18T07:55:01;12.40;99.90
12634;DHT22;6382;48.614;8.880;2023-02-18T07:57:28;10.00;99.90
12634;DHT22;6382;48.614;8.880;2023-02-18T07:59:55;11.70;99.90
12634;DHT22;6382;48.614;8.880;2023-02-18T08:02:22;10.00;99.90
12634;DHT22;6382;48.614;8.880;2023-02-18T08:04:49;10.00;99.90
12634;DHT22;6382;48.614;8.880;2023-02-18T08:07:16;9.90;99.90
12634;DHT22;6382;48.614;8.880;2023-02-18T08:09:43;10.00;99.90
12634;DHT22;6382;48.614;8.880;2023-02-18T08:12:10;12.20;99.90
12634;DHT22;6382;48.614;8.880;2023-02-18T08:14:36;10.60;99.90
12634;DHT22;6382;48.614;8.880;2023-02-18T08:17:03;10.00;99.90
12634;DHT22;6382;48.614;8.880;2023-02-18T08:19:30;10.00;99.90
12634;DHT22;6382;48.614;8.880;2023-02-18T08:21:59;10.00;99.90
12634;DHT22;6382;48.614;8.880;2023-02-18T08:24:26;10.10;99.90
12634;DHT22;6382;48.614;8.880;2023-02-18T08:26:52;12.50;99.90
12634;DHT22;6382;48.614;8.880;2023-02-18T08:29:27;11.50;99.90
12634;DHT22;6382;48.614;8.880;2023-02-18T08:31:53;10.10;99.90
12634;DHT22;6382;48.614;8.880;2023-02-18T08:34:22;12.70;99.90
12634;DHT22;6382;48.614;8.880;2023-02-18T08:36:49;10.10;99.90
12634;DHT22;6382;48.614;8.880;2023-02-18T08:39:15;10.20;99.90
12634;DHT22;6382;48.614;8.880;2023-02-18T08:41:42;10.20;99.90
12634;DHT22;6382;48.614;8.880;2023-02-18T08:44:09;10.30;99.90
12634;DHT22;6382;48.614;8.880;2023-02-18T08:46:35;10.30;99.90
12634;DHT22;6382;48.614;8.880;2023-02-18T08:49:03;10.40;99.90
12634;DHT22;6382;48.614;8.880;2023-02-18T08:51:30;13.40;99.90
12634;DHT22;6382;48.614;8.880;2023-02-18T08:53:57;10.40;99.90
12634;DHT22;6382;48.614;8.880;2023-02-18T08:56:23;10.50;99.90
12634;DHT22;6382;48.614;8.880;2023-02-18T08:58:50;10.50;99.90
12634;DHT22;6382;48.614;8.880;2023-02-18T09:01:17;12.70;99.90
12634;DHT22;6382;48.614;8.880;2023-02-18T09:03:43;10.60;99.90
12634;DHT22;6382;48.614;8.880;2023-02-18T09:06:10;10.70;99.90
12634;DHT22;6382;48.614;8.880;2023-02-18T09:08:37;10.70;99.90
12634;DHT22;6382;48.614;8.880;2023-02-18T09:11:03;13.10;99.90
12634;DHT22;6382;48.614;8.880;2023-02-18T09:13:31;10.60;99.90
12634;DHT22;6382;48.614;8.880;2023-02-18T09:16:02;12.80;99.90
12634;DHT22;6382;48.614;8.880;2023-02-18T09:18:30;10.70;99.90
12634;DHT22;6382;48.614;8.880;2023-02-18T09:20:57;11.60;99.90
12634;DHT22;6382;48.614;8.880;2023-02-18T09:23:27;10.90;99.90
12634;DHT22;6382;48.614;8.880;2023-02-18T09:25:54;11.00;99.90
12634;DHT22;6382;48.614;8.880;2023-02-18T09:28:21;13.50;99.90
12634;DHT22;6382;48.614;8.880;2023-02-18T09:30:48;11.10;99.90
12634;DHT22;6382;48.614;8.880;2023-02-18T09:33:15;11.20;99.90
12634;DHT22;6382;48.614;8.880;2023-02-18T09:35:42;12.50;99.90
12634;DHT22;6382;48.614;8.880;2023-02-18T09:38:10;11.30;99.90
12634;DHT22;6382;48.614;8.880;2023-02-18T09:40:38;12.50;99.90
12634;DHT22;6382;48.614;8.880;2023-02-18T09:43:05;11.40;99.90
12634;DHT22;6382;48.614;8.880;2023-02-18T09:45:32;11.40;99.90
12634;DHT22;6382;48.614;8.880;2023-02-18T09:47:59;12.50;99.90
12634;DHT22;6382;48.614;8.880;2023-02-18T09:50:28;14.60;99.90
12634;DHT22;6382;48.614;8.880;2023-02-18T09:52:57;14.30;99.90
12634;DHT22;6382;48.614;8.880;2023-02-18T09:55:31;14.20;99.90
12634;DHT22;6382;48.614;8.880;2023-02-18T09:58:03;11.50;99.90
12634;DHT22;6382;48.614;8.880;2023-02-18T10:00:34;13.10;99.90
12634;DHT22;6382;48.614;8.880;2023-02-18T10:03:03;13.40;99.90
12634;DHT22;6382;48.614;8.880;2023-02-18T10:05:31;11.70;99.90
12634;DHT22;6382;48.614;8.880;2023-02-18T10:08:00;11.80;99.90
12634;DHT22;6382;48.614;8.880;2023-02-18T10:10:31;11.80;99.90
12634;DHT22;6382;48.614;8.880;2023-02-18T10:13:00;11.80;99.90
12634;DHT22;6382;48.614;8.880;2023-02-18T10:15:27;11.80;99.90
12634;DHT22;6382;48.614;8.880;2023-02-18T10:17:56;11.80;99.90
12634;DHT22;6382;48.614;8.880;2023-02-18T10:20:24;11.70;99.90
12634;DHT22;6382;48.614;8.880;2023-02-18T10:22:52;11.70;99.90
12634;DHT22;6382;48.614;8.880;2023-02-18T10:25:20;13.10;99.90
12634;DHT22;6382;48.614;8.880;2023-02-18T10:27:48;11.60;99.90
12634;DHT22;6382;48.614;8.880;2023-02-18T10:30:23;11.60;99.90
12634;DHT22;6382;48.614;8.880;2023-02-18T10:33:00;11.60;99.90
12634;DHT22;6382;48.614;8.880;2023-02-18T10:35:35;11.60;99.90
12634;DHT22;6382;48.614;8.880;2023-02-18T10:38:15;11.60;99.90
12634;DHT22;6382;48.614;8.880;2023-02-18T10:43:33;11.50;99.90
12634;DHT22;6382;48.614;8.880;2023-02-18T10:46:11;11.50;99.90
12634;DHT22;6382;48.614;8.880;2023-02-18T10:48:56;11.60;99.90
12634;DHT22;6382;48.614;8.880;2023-02-18T10:51:27;11.60;99.90
12634;DHT22;6382;48.614;8.880;2023-02-18T10:53:54;11.60;99.90
12634;DHT22;6382;48.614;8.880;2023-02-18T11:01:36;11.60;99.90
12634;DHT22;6382;48.614;8.880;2023-02-18T11:04:10;12.10;99.90
12634;DHT22;6382;48.614;8.880;2023-02-18T11:06:39;11.70;99.90
12634;DHT22;6382;48.614;8.880;2023-02-18T11:09:06;11.70;99.90
12634;DHT22;6382;48.614;8.880;2023-02-18T11:11:38;14.00;99.90
12634;DHT22;6382;48.614;8.880;2023-02-18T11:14:05;11.80;99.90
12634;DHT22;6382;48.614;8.880;2023-02-18T11:16:39;11.80;99.90
12634;DHT22;6382;48.614;8.880;2023-02-18T11:21:52;11.90;99.90
12634;DHT22;6382;48.614;8.880;2023-02-18T11:24:31;12.00;99.90
12634;DHT22;6382;48.614;8.880;2023-02-18T11:26:57;13.20;99.90
12634;DHT22;6382;48.614;8.880;2023-02-18T11:29:24;12.00;99.90
12634;DHT22;6382;48.614;8.880;2023-02-18T11:31:54;14.70;99.90
12634;DHT22;6382;48.614;8.880;2023-02-18T11:34:23;11.90;99.90
12634;DHT22;6382;48.614;8.880;2023-02-18T11:36:51;13.20;99.90
12634;DHT22;6382;48.614;8.880;2023-02-18T11:39:20;12.00;99.90
12634;DHT22;6382;48.614;8.880;2023-02-18T11:41:52;14.60;99.90
12634;DHT22;6382;48.614;8.880;2023-02-18T11:44:26;14.40;99.90
12634;DHT22;6382;48.614;8.880;2023-02-18T11:46:56;12.10;99.90
12634;DHT22;6382;48.614;8.880;2023-02-18T11:49:23;12.20;99.90
12634;DHT22;6382;48.614;8.880;2023-02-18T11:51:50;12.10;99.90
12634;DHT22;6382;48.614;8.880;2023-02-18T11:56:43;12.10;99.90
12634;DHT22;6382;48.614;8.880;2023-02-18T11:59:19;12.10;99.90
12634;DHT22;6382;48.614;8.880;2023-02-18T12:01:52;12.00;99.90
12634;DHT22;6382;48.614;8.880;2023-02-18T12:04:20;12.00;99.90
12634;DHT22;6382;48.614;8.880;2023-02-18T12:09:57;11.90;99.90
12634;DHT22;6382;48.614;8.880;2023-02-18T12:12:29;12.00;99.90
12634;DHT22;6382;48.614;8.880;2023-02-18T12:14:56;12.00;99.90
12634;DHT22;6382;48.614;8.880;2023-02-18T12:25:08;12.00;99.90
12634;DHT22;6382;48.614;8.880;2023-02-18T12:27:45;12.10;99.90
12634;DHT22;6382;48.614;8.880;2023-02-18T12:35:17;12.30;99.90
12634;DHT22;6382;48.614;8.880;2023-02-18T12:37:52;12.30;99.90
12634;DHT22;6382;48.614;8.880;2023-02-18T12:40:34;12.30;99.90
12634;DHT22;6382;48.614;8.880;2023-02-18T12:56:46;12.50;99.90
12634;DHT22;6382;48.614;8.880;2023-02-18T12:59:30;13.80;99.90
12634;DHT22;6382;48.614;8.880;2023-02-18T13:04:39;12.40;99.90
12634;DHT22;6382;48.614;8.880;2023-02-18T13:07:21;12.30;99.90
12634;DHT22;6382;48.614;8.880;2023-02-18T13:12:37;12.40;99.90
12634;DHT22;6382;48.614;8.880;2023-02-18T13:15:52;12.40;99.90
12634;DHT22;6382;48.614;8.880;2023-02-18T13:17:53;12.50;99.90
12634;DHT22;6382;48.614;8.880;2023-02-18T13:20:32;13.80;99.90
12634;DHT22;6382;48.614;8.880;2023-02-18T13:23:00;12.50;99.90
12634;DHT22;6382;48.614;8.880;2023-02-18T13:25:27;12.60;99.90
12634;DHT22;6382;48.614;8.880;2023-02-18T13:28:01;14.50;99.90
12634;DHT22;6382;48.614;8.880;2023-02-18T13:30:41;12.60;99.90
12634;DHT22;6382;48.614;8.880;2023-02-18T13:33:12;15.10;99.90
12634;DHT22;6382;48.614;8.880;2023-02-18T13:41:10;12.60;99.90
12634;DHT22;6382;48.614;8.880;2023-02-18T13:43:37;12.70;99.90
12634;DHT22;6382;48.614;8.880;2023-02-18T13:46:09;12.60;99.90
12634;DHT22;6382;48.614;8.880;2023-02-18T13:51:06;12.60;99.90
12634;DHT22;6382;48.614;8.880;2023-02-18T13:53:35;12.60;99.90
12634;DHT22;6382;48.614;8.880;2023-02-18T13:56:09;12.60;99.90
12634;DHT22;6382;48.614;8.880;2023-02-18T14:01:04;12.70;99.90
12634;DHT22;6382;48.614;8.880;2023-02-18T14:03:34;12.60;99.90
12634;DHT22;6382;48.614;8.880;2023-02-18T14:06:38;13.30;99.90
12634;DHT22;6382;48.614;8.880;2023-02-18T14:09:02;12.60;99.90
12634;DHT22;6382;48.614;8.880;2023-02-18T14:11:31;12.60;99.90
12634;DHT22;6382;48.614;8.880;2023-02-18T14:16:25;12.60;99.90
12634;DHT22;6382;48.614;8.880;2023-02-18T14:18:56;13.30;99.90
12634;DHT22;6382;48.614;8.880;2023-02-18T14:21:42;12.50;99.90
12634;DHT22;6382;48.614;8.880;2023-02-18T14:24:09;12.50;99.90
12634;DHT22;6382;48.614;8.880;2023-02-18T14:26:38;12.50;99.90
12634;DHT22;6382;48.614;8.880;2023-02-18T14:29:07;15.50;99.90
12634;DHT22;6382;48.614;8.880;2023-02-18T14:39:41;12.30;99.90
12634;DHT22;6382;48.614;8.880;2023-02-18T14:44:46;12.20;99.90
12634;DHT22;6382;48.614;8.880;2023-02-18T14:50:00;12.10;99.90
12634;DHT22;6382;48.614;8.880;2023-02-18T14:52:37;12.70;99.90
12634;DHT22;6382;48.614;8.880;2023-02-18T14:55:05;12.10;99.90
12634;DHT22;6382;48.614;8.880;2023-02-18T14:57:38;12.10;99.90
12634;DHT22;6382;48.614;8.880;2023-02-18T15:00:06;12.20;99.90
12634;DHT22;6382;48.614;8.880;2023-02-18T15:02:39;12.20;99.90
12634;DHT22;6382;48.614;8.880;2023-02-18T15:05:16;12.30;99.90
12634;DHT22;6382;48.614;8.880;2023-02-18T15:07:59;12.20;99.90
12634;DHT22;6382;48.614;8.880;2023-02-18T15:10:34;12.20;99.90
12634;DHT22;6382;48.614;8.880;2023-02-18T15:13:03;12.10;99.90
12634;DHT22;6382;48.614;8.880;2023-02-18T15:15:31;12.10;99.90
12634;DHT22;6382;48.614;8.880;2023-02-18T15:17:58;12.10;99.90
12634;DHT22;6382;48.614;8.880;2023-02-18T15:20:25;12.10;99.90
12634;DHT22;6382;48.614;8.880;2023-02-18T15:22:52;12.00;99.90
12634;DHT22;6382;48.614;8.880;2023-02-18T15:25:20;15.10;99.90
12634;DHT22;6382;48.614;8.880;2023-02-18T15:27:50;12.00;99.90
12634;DHT22;6382;48.614;8.880;2023-02-18T15:32:50;14.00;99.90
12634;DHT22;6382;48.614;8.880;2023-02-18T15:35:18;11.90;99.90
12634;DHT22;6382;48.614;8.880;2023-02-18T15:37:46;11.90;99.90
12634;DHT22;6382;48.614;8.880;2023-02-18T15:40:17;11.90;99.90
12634;DHT22;6382;48.614;8.880;2023-02-18T15:42:50;14.00;99.90
12634;DHT22;6382;48.614;8.880;2023-02-18T15:45:18;11.80;99.90
12634;DHT22;6382;48.614;8.880;2023-02-18T15:47:47;11.80;99.90
12634;DHT22;6382;48.614;8.880;2023-02-18T15:50:19;12.80;99.90
12634;DHT22;6382;48.614;8.880;2023-02-18T15:52:46;12.70;99.90
12634;DHT22;6382;48.614;8.880;2023-02-18T15:55:17;12.90;99.90
12634;DHT22;6382;48.614;8.880;2023-02-18T15:57:44;11.70;99.90
12634;DHT22;6382;48.614;8.880;2023-02-18T16:00:12;11.60;99.90
12634;DHT22;6382;48.614;8.880;2023-02-18T16:02:53;11.60;99.90
12634;DHT22;6382;48.614;8.880;2023-02-18T16:07:57;11.80;99.90
12634;DHT22;6382;48.614;8.880;2023-02-18T16:10:34;11.50;99.90
12634;DHT22;6382;48.614;8.880;2023-02-18T16:13:04;11.40;99.90
12634;DHT22;6382;48.614;8.880;2023-02-18T16:15:32;11.40;99.90
12634;DHT22;6382;48.614;8.880;2023-02-18T16:18:03;11.30;99.90
12634;DHT22;6382;48.614;8.880;2023-02-18T16:20:31;11.20;99.90
12634;DHT22;6382;48.614;8.880;2023-02-18T16:22:59;11.20;99.90
12634;DHT22;6382;48.614;8.880;2023-02-18T16:25:38;11.20;99.90
12634;DHT22;6382;48.614;8.880;2023-02-18T16:28:13;11.10;99.90
12634;DHT22;6382;48.614;8.880;2023-02-18T16:30:42;11.10;99.90
12634;DHT22;6382;48.614;8.880;2023-02-18T16:33:10;11.10;99.90
12634;DHT22;6382;48.614;8.880;2023-02-18T16:35:37;11.10;99.90
12634;DHT22;6382;48.614;8.880;2023-02-18T16:38:19;11.00;99.90
12634;DHT22;6382;48.614;8.880;2023-02-18T16:40:46;11.00;99.90
12634;DHT22;6382;48.614;8.880;2023-02-18T16:43:14;11.00;99.90
12634;DHT22;6382;48.614;8.880;2023-02-18T16:45:45;10.90;99.90
12634;DHT22;6382;48.614;8.880;2023-02-18T16:50:58;10.90;99.90
12634;DHT22;6382;48.614;8.880;2023-02-18T16:53:25;10.80;99.90
12634;DHT22;6382;48.614;8.880;2023-02-18T16:55:52;10.80;99.90
12634;DHT22;6382;48.614;8.880;2023-02-18T16:58:19;10.80;99.90
12634;DHT22;6382;48.614;8.880;2023-02-18T17:00:45;10.80;99.90
12634;DHT22;6382;48.614;8.880;2023-02-18T17:03:12;10.80;99.90
12634;DHT22;6382;48.614;8.880;2023-02-18T17:05:39;10.70;99.90
12634;DHT22;6382;48.614;8.880;2023-02-18T17:08:13;10.70;99.90
12634;DHT22;6382;48.614;8.880;2023-02-18T17:10:40;10.70;99.90
12634;DHT22;6382;48.614;8.880;2023-02-18T17:13:14;10.70;99.90
12634;DHT22;6382;48.614;8.880;2023-02-18T17:15:41;10.60;99.90
12634;DHT22;6382;48.614;8.880;2023-02-18T17:18:09;12.90;99.90
12634;DHT22;6382;48.614;8.880;2023-02-18T17:20:36;10.70;99.90
12634;DHT22;6382;48.614;8.880;2023-02-18T17:23:02;10.70;99.90
12634;DHT22;6382;48.614;8.880;2023-02-18T17:25:30;10.70;99.90
12634;DHT22;6382;48.614;8.880;2023-02-18T17:27:59;12.20;99.90
12634;DHT22;6382;48.614;8.880;2023-02-18T17:30:26;12.00;99.90
12634;DHT22;6382;48.614;8.880;2023-02-18T17:32:53;10.70;99.90
12634;DHT22;6382;48.614;8.880;2023-02-18T17:35:20;10.70;99.90
12634;DHT22;6382;48.614;8.880;2023-02-18T17:37:48;10.60;99.90
12634;DHT22;6382;48.614;8.880;2023-02-18T17:40:16;10.60;99.90
12634;DHT22;6382;48.614;8.880;2023-02-18T17:42:42;10.60;99.90
12634;DHT22;6382;48.614;8.880;2023-02-18T17:45:12;10.60;99.90
12634;DHT22;6382;48.614;8.880;2023-02-18T17:47:43;10.60;99.90
12634;DHT22;6382;48.614;8.880;2023-02-18T17:50:09;10.60;99.90
12634;DHT22;6382;48.614;8.880;2023-02-18T17:52:36;10.60;99.90
12634;DHT22;6382;48.614;8.880;2023-02-18T17:55:17;10.60;99.90
12634;DHT22;6382;48.614;8.880;2023-02-18T17:57:43;10.50;99.90
12634;DHT22;6382;48.614;8.880;2023-02-18T18:00:11;10.60;99.90
12634;DHT22;6382;48.614;8.880;2023-02-18T18:02:38;10.50;99.90
12634;DHT22;6382;48.614;8.880;2023-02-18T18:05:05;10.50;99.90
12634;DHT22;6382;48.614;8.880;2023-02-18T18:07:32;10.50;99.90
12634;DHT22;6382;48.614;8.880;2023-02-18T18:09:58;10.30;99.90